Terminal Aerodrome Forecast
Issued by NWS

Home | Current Version | Previous Version | Text Only | Print | Product List | Glossary On
Versions: 1 2 3 4 5 6 7 8 9 10 11 12 13 14 15 16 17 18 19 20
000
FTUS43 KGRB 281000 AAB
TAFMTW
TAF AMD
KMTW 281058Z 2811/2906 VRB03KT P6SM SCT012 SCT030
      TEMPO 2811/2815 5SM BR BKN012 BKN022
     FM281700 12006KT P6SM SCT030 BKN200
     FM282100 11008KT P6SM OVC080
     FM290200 11004KT 5SM -SHRA OVC040=

USA.gov is the U.S. government's official web portal to all federal, state and local government web resources and services.